createdAt,value
2023-03-11T00:02:43.396Z,3.41
2023-03-11T00:05:17.396Z,3.41
2023-03-11T00:07:46.503Z,3.41
2023-03-11T00:10:16.716Z,3.43
2023-03-11T00:12:46.001Z,3.46
2023-03-11T00:15:15.122Z,3.48
2023-03-11T00:17:44.554Z,3.52
2023-03-11T00:20:20.899Z,3.51
2023-03-11T00:22:51.225Z,3.48
2023-03-11T00:25:24.047Z,3.44
2023-03-11T00:27:52.268Z,3.36
2023-03-11T00:30:21.200Z,3.32
2023-03-11T00:32:50.419Z,3.26
2023-03-11T00:35:25.379Z,3.19
2023-03-11T00:37:55.617Z,3.13
2023-03-11T00:40:25.630Z,3.15
2023-03-11T00:42:54.534Z,3.18
2023-03-11T00:45:22.893Z,3.20
2023-03-11T00:47:55.176Z,3.24
2023-03-11T00:50:25.782Z,3.27
2023-03-11T00:52:54.938Z,3.30
2023-03-11T00:55:25.588Z,3.27
2023-03-11T00:57:55.537Z,3.23
2023-03-11T01:00:26.116Z,3.20
2023-03-11T01:07:22.797Z,3.11
2023-03-11T01:09:50.698Z,3.10
2023-03-11T01:12:18.662Z,3.14
2023-03-11T01:14:46.865Z,3.21
2023-03-11T01:17:14.929Z,3.24
2023-03-11T01:19:45.191Z,3.24
2023-03-11T01:22:13.503Z,3.26
2023-03-11T01:24:42.147Z,3.25
2023-03-11T01:27:10.322Z,3.30
2023-03-11T01:29:38.451Z,3.35
2023-03-11T01:32:07.205Z,3.39
2023-03-11T01:34:36.381Z,3.45
2023-03-11T01:37:08.518Z,3.52
2023-03-11T01:39:36.594Z,3.55
2023-03-11T01:42:05.304Z,3.56
2023-03-11T01:44:33.584Z,3.55
2023-03-11T01:47:02.289Z,3.51
2023-03-11T01:49:34.192Z,3.46
2023-03-11T01:52:04.312Z,3.47
2023-03-11T01:54:37.540Z,3.49
2023-03-11T01:57:08.173Z,3.46
2023-03-11T01:59:44.904Z,3.42
2023-03-11T02:02:25.710Z,3.36
2023-03-11T02:09:40.614Z,3.29
2023-03-11T02:12:10.044Z,3.37
2023-03-11T02:14:40.002Z,3.39
2023-03-11T02:17:11.415Z,3.37
2023-03-11T02:19:52.879Z,3.33
2023-03-11T02:22:21.359Z,3.31
2023-03-11T02:24:50.907Z,3.27
2023-03-11T02:27:19.506Z,3.27
2023-03-11T02:29:50.092Z,3.25
2023-03-11T02:32:18.898Z,3.19
2023-03-11T02:34:47.609Z,3.13
2023-03-11T02:37:16.792Z,3.09
2023-03-11T02:39:50.954Z,3.05
2023-03-11T02:42:24.273Z,3.01
2023-03-11T02:45:08.134Z,2.99
2023-03-11T02:47:36.226Z,2.98
2023-03-11T02:50:05.135Z,2.98
2023-03-11T02:52:34.038Z,3.01
2023-03-11T02:55:02.062Z,3.05
2023-03-11T02:57:30.185Z,3.10
2023-03-11T03:00:00.484Z,3.08
2023-03-11T03:02:30.195Z,3.05
2023-03-11T03:04:58.390Z,3.02
2023-03-11T03:07:27.180Z,3.02
2023-03-11T03:09:56.352Z,3.02
2023-03-11T03:12:27.070Z,3.01
2023-03-11T03:14:58.233Z,2.99
2023-03-11T03:17:26.771Z,3.02
2023-03-11T03:19:56.056Z,3.03
2023-03-11T03:22:29.526Z,3.07
2023-03-11T03:24:58.117Z,3.12
2023-03-11T03:27:26.809Z,3.16
2023-03-11T03:29:55.261Z,3.18
2023-03-11T03:32:23.446Z,3.18
2023-03-11T03:34:58.256Z,3.20
2023-03-11T03:37:34.645Z,3.20
2023-03-11T03:40:07.877Z,3.24
2023-03-11T03:42:36.853Z,3.28
2023-03-11T03:45:10.273Z,3.30
2023-03-11T03:47:39.301Z,3.28
2023-03-11T03:50:11.007Z,3.27
2023-03-11T03:52:41.105Z,3.24
2023-03-11T03:55:10.201Z,3.20
2023-03-11T03:57:38.576Z,3.18
2023-03-11T04:00:10.967Z,3.17
2023-03-11T04:02:42.215Z,3.16
2023-03-11T04:05:17.497Z,3.16
2023-03-11T04:07:45.896Z,3.16
2023-03-11T04:10:14.348Z,3.19
2023-03-11T04:12:43.087Z,3.19
2023-03-11T04:15:11.458Z,3.20
2023-03-11T04:17:40.698Z,3.19
2023-03-11T04:20:10.530Z,3.18
2023-03-11T04:22:38.998Z,3.19
2023-03-11T04:25:08.269Z,3.20
2023-03-11T04:27:38.570Z,3.25
2023-03-11T04:30:08.182Z,3.30
2023-03-11T04:32:36.771Z,3.33
2023-03-11T04:35:05.709Z,3.33
2023-03-11T04:37:34.149Z,3.32
2023-03-11T04:40:02.517Z,3.30
2023-03-11T04:42:31.206Z,3.29
2023-03-11T04:44:59.252Z,3.32
2023-03-11T04:47:28.882Z,3.33
2023-03-11T04:49:57.156Z,3.33
2023-03-11T04:52:25.435Z,3.32
2023-03-11T04:54:53.670Z,3.29
2023-03-11T04:57:21.890Z,3.31
2023-03-11T04:59:50.294Z,3.34
2023-03-11T05:02:19.459Z,3.36
2023-03-11T05:04:55.143Z,3.36
2023-03-11T05:07:24.509Z,3.38
2023-03-11T05:09:53.141Z,3.38
2023-03-11T05:12:21.525Z,3.39
2023-03-11T05:14:52.408Z,3.43
2023-03-11T05:17:20.706Z,3.48
2023-03-11T05:19:49.347Z,3.53
2023-03-11T05:22:21.869Z,3.59
2023-03-11T05:24:50.292Z,3.60
2023-03-11T05:27:21.290Z,3.64
2023-03-11T05:29:53.294Z,3.70
2023-03-11T05:32:21.707Z,3.72
2023-03-11T05:34:52.631Z,3.76
2023-03-11T05:37:20.837Z,3.84
2023-03-11T05:39:52.881Z,3.90
2023-03-11T05:42:21.922Z,3.92
2023-03-11T05:44:51.536Z,3.94
2023-03-11T05:47:20.110Z,3.94
2023-03-11T05:49:48.932Z,3.94
2023-03-11T05:52:19.903Z,3.98
2023-03-11T05:54:52.532Z,4.06
2023-03-11T05:57:23.631Z,4.11
2023-03-11T05:59:52.241Z,4.15
2023-03-11T06:02:21.193Z,4.24
2023-03-11T06:04:51.383Z,4.34
2023-03-11T06:07:19.832Z,4.39
2023-03-11T06:09:50.498Z,4.41
2023-03-11T06:12:23.804Z,4.46
2023-03-11T06:15:17.898Z,4.48
2023-03-11T06:17:46.515Z,4.50
2023-03-11T06:20:16.854Z,4.49
2023-03-11T06:22:49.688Z,4.53
2023-03-11T06:25:18.190Z,4.59
2023-03-11T06:27:51.657Z,4.64
2023-03-11T06:30:20.676Z,4.67
2023-03-11T06:32:56.893Z,4.68
2023-03-11T06:35:25.035Z,4.70
2023-03-11T06:37:53.070Z,4.74
2023-03-11T06:40:21.097Z,4.78
2023-03-11T06:42:49.171Z,4.80
2023-03-11T06:45:20.235Z,4.84
2023-03-11T06:47:49.614Z,4.87
2023-03-11T06:50:20.029Z,4.90
2023-03-11T06:52:51.322Z,4.98
2023-03-11T06:55:21.307Z,5.04
2023-03-11T06:57:49.420Z,5.09
2023-03-11T07:00:17.632Z,5.12
2023-03-11T07:02:50.012Z,5.15
2023-03-11T07:05:18.426Z,5.15
2023-03-11T07:07:47.237Z,5.16
2023-03-11T07:10:20.733Z,5.19
2023-03-11T07:12:48.767Z,5.20
2023-03-11T07:15:17.050Z,5.18
2023-03-11T07:17:46.733Z,5.16
2023-03-11T07:20:15.253Z,5.16
2023-03-11T07:22:43.342Z,5.17
2023-03-11T07:25:11.278Z,5.17
2023-03-11T07:27:39.358Z,5.15
2023-03-11T07:30:08.275Z,5.15
2023-03-11T07:32:38.226Z,5.13
2023-03-11T07:35:07.487Z,5.08
2023-03-11T07:37:37.410Z,5.03
2023-03-11T07:40:06.074Z,4.98
2023-03-11T07:42:34.957Z,4.90
2023-03-11T07:45:03.266Z,4.84
2023-03-11T07:47:31.531Z,4.79
2023-03-11T07:49:59.570Z,4.75
2023-03-11T07:52:30.985Z,4.73
2023-03-11T07:54:59.549Z,4.72
2023-03-11T07:57:27.689Z,4.68
2023-03-11T07:59:55.742Z,4.66
2023-03-11T08:02:23.867Z,4.64
2023-03-11T08:04:52.123Z,4.62
2023-03-11T08:07:20.838Z,4.61
2023-03-11T08:09:49.062Z,4.62
2023-03-11T08:12:17.264Z,4.63
2023-03-11T08:14:45.305Z,4.65
2023-03-11T08:17:14.077Z,4.66
2023-03-11T08:19:42.368Z,4.67
2023-03-11T08:22:10.390Z,4.68
2023-03-11T08:24:40.182Z,4.69
2023-03-11T08:27:09.700Z,4.71
2023-03-11T08:29:37.912Z,4.74
2023-03-11T08:32:06.644Z,4.79
2023-03-11T08:34:35.588Z,4.84
2023-03-11T08:37:03.893Z,4.88
2023-03-11T08:39:32.089Z,4.93
2023-03-11T08:42:03.379Z,4.96
2023-03-11T08:44:31.516Z,4.95
2023-03-11T08:47:00.881Z,4.91
2023-03-11T08:49:29.676Z,4.90
2023-03-11T08:51:57.997Z,4.92
2023-03-11T08:54:33.699Z,4.95
2023-03-11T08:57:03.858Z,4.96
2023-03-11T08:59:32.035Z,4.98
2023-03-11T09:02:00.036Z,4.98
2023-03-11T09:04:28.443Z,4.97
2023-03-11T09:06:57.526Z,4.94
2023-03-11T09:09:27.559Z,4.89
2023-03-11T09:11:56.291Z,4.88
2023-03-11T09:14:25.100Z,4.90
2023-03-11T09:16:53.881Z,4.91
2023-03-11T09:19:21.869Z,4.95
2023-03-11T09:21:50.665Z,5.01
2023-03-11T09:24:19.016Z,5.04
2023-03-11T09:26:50.464Z,5.04
2023-03-11T09:29:20.649Z,5.01
2023-03-11T09:31:48.921Z,5.00
2023-03-11T09:34:17.070Z,5.00
2023-03-11T09:36:45.774Z,4.99
2023-03-11T09:39:13.793Z,5.01
2023-03-11T09:41:58.272Z,5.04
2023-03-11T09:44:39.525Z,5.07
2023-03-11T09:47:38.676Z,5.09
2023-03-11T09:50:11.876Z,5.13
2023-03-11T09:52:45.196Z,5.18
2023-03-11T09:55:46.928Z,5.22
2023-03-11T09:58:36.711Z,5.29
2023-03-11T10:01:39.802Z,5.37
2023-03-11T10:04:10.965Z,5.45
2023-03-11T10:06:38.996Z,5.52
2023-03-11T10:09:13.024Z,5.59
2023-03-11T10:12:08.301Z,5.67
2023-03-11T10:14:39.912Z,5.76
2023-03-11T10:17:28.072Z,5.84
2023-03-11T10:20:16.408Z,5.91
2023-03-11T10:22:44.581Z,5.98
2023-03-11T10:25:18.988Z,6.06
2023-03-11T10:27:55.786Z,6.15
2023-03-11T10:30:34.350Z,6.23
2023-03-11T10:33:04.373Z,6.26
2023-03-11T10:35:40.738Z,6.32
2023-03-11T10:38:16.678Z,6.38
2023-03-11T10:40:47.242Z,6.43
2023-03-11T10:43:32.208Z,6.46
2023-03-11T10:46:00.525Z,6.52
2023-03-11T10:48:30.192Z,6.58
2023-03-11T10:51:02.580Z,6.67
2023-03-11T10:53:31.458Z,6.78
2023-03-11T10:56:00.054Z,6.88
2023-03-11T10:58:29.448Z,6.98
2023-03-11T11:01:16.922Z,7.08
2023-03-11T11:03:46.203Z,7.21
2023-03-11T11:06:26.759Z,7.33
2023-03-11T11:09:19.444Z,7.48
2023-03-11T11:12:13.636Z,7.60
2023-03-11T11:14:47.957Z,7.70
2023-03-11T11:17:36.239Z,7.83
2023-03-11T11:20:13.311Z,7.98
2023-03-11T11:22:48.168Z,8.06
2023-03-11T11:25:36.943Z,8.12
2023-03-11T11:28:19.049Z,8.17
2023-03-11T11:31:24.878Z,8.21
2023-03-11T11:33:55.600Z,8.26
2023-03-11T11:36:25.812Z,8.30
2023-03-11T11:38:55.581Z,8.34
2023-03-11T11:41:24.561Z,8.37
2023-03-11T11:43:53.801Z,8.42
2023-03-11T11:46:38.347Z,8.47
2023-03-11T11:49:19.860Z,8.52
2023-03-11T11:52:14.145Z,8.58
2023-03-11T11:54:59.038Z,8.64
2023-03-11T11:57:27.284Z,8.72
2023-03-11T11:59:57.358Z,8.77
2023-03-11T12:02:34.065Z,8.82
2023-03-11T12:05:19.869Z,8.86
2023-03-11T12:08:15.564Z,8.90
2023-03-11T12:10:55.001Z,8.92
2023-03-11T12:13:48.528Z,8.95
2023-03-11T12:16:38.025Z,8.98
2023-03-11T12:19:14.293Z,9.01
2023-03-11T12:21:56.970Z,9.05
2023-03-11T12:24:44.258Z,9.09
2023-03-11T12:27:21.607Z,9.14
2023-03-11T12:29:55.686Z,9.17
2023-03-11T12:32:31.868Z,9.22
2023-03-11T12:35:10.828Z,9.26
2023-03-11T12:37:40.820Z,9.31
2023-03-11T12:40:46.739Z,9.35
2023-03-11T12:43:24.604Z,9.39
2023-03-11T12:45:55.482Z,9.42
2023-03-11T12:48:29.785Z,9.45
2023-03-11T12:50:57.803Z,9.51
2023-03-11T12:53:45.600Z,9.54
2023-03-11T12:56:31.904Z,9.59
2023-03-11T12:59:02.892Z,9.63
2023-03-11T13:02:02.281Z,9.67
2023-03-11T13:04:59.844Z,9.70
2023-03-11T13:07:46.810Z,9.73
2023-03-11T13:10:35.173Z,9.76
2023-03-11T13:13:22.257Z,9.77
2023-03-11T13:15:52.396Z,9.78
2023-03-11T13:18:25.571Z,9.78
2023-03-11T13:20:56.464Z,9.78
2023-03-11T13:23:27.447Z,9.82
2023-03-11T13:26:22.791Z,9.89
2023-03-11T13:29:05.353Z,9.96
2023-03-11T13:31:51.342Z,10.01
2023-03-11T13:34:37.203Z,10.06
2023-03-11T13:37:17.827Z,10.17
2023-03-11T13:39:58.382Z,10.43
2023-03-11T13:42:32.396Z,10.50
2023-03-11T13:45:00.539Z,10.49
2023-03-11T13:47:28.609Z,10.45
2023-03-11T13:50:09.878Z,10.41
2023-03-11T13:52:42.878Z,10.37
2023-03-11T13:55:22.272Z,10.36
2023-03-11T13:57:57.609Z,10.34
2023-03-11T14:00:28.740Z,10.34
2023-03-11T14:03:02.725Z,10.34
2023-03-11T14:05:35.195Z,10.34
2023-03-11T14:08:24.677Z,10.34
2023-03-11T14:11:03.689Z,10.35
2023-03-11T14:13:33.321Z,10.36
2023-03-11T14:16:08.296Z,10.36
2023-03-11T14:18:40.825Z,10.37
2023-03-11T14:21:14.621Z,10.38
2023-03-11T14:23:51.529Z,10.38
2023-03-11T14:26:22.569Z,10.39
2023-03-11T14:28:52.271Z,10.40
2023-03-11T14:31:25.528Z,10.41
2023-03-11T14:34:04.702Z,10.42
2023-03-11T14:36:54.154Z,10.43
2023-03-11T14:39:34.842Z,10.45
2023-03-11T14:42:21.666Z,10.47
2023-03-11T14:45:13.567Z,10.49
2023-03-11T14:47:54.586Z,10.50
2023-03-11T14:50:24.461Z,10.52
2023-03-11T14:53:04.796Z,10.55
2023-03-11T14:55:40.633Z,10.59
2023-03-11T14:58:15.915Z,10.62
2023-03-11T15:00:50.437Z,10.65
2023-03-11T15:03:32.793Z,10.67
2023-03-11T15:06:10.337Z,10.67
2023-03-11T15:08:44.239Z,10.67
2023-03-11T15:11:12.702Z,10.67
2023-03-11T15:13:42.603Z,10.67
2023-03-11T15:16:30.526Z,10.67
2023-03-11T15:19:27.670Z,10.67
2023-03-11T15:22:05.396Z,10.67
2023-03-11T15:24:35.146Z,10.68
2023-03-11T15:27:06.286Z,10.71
2023-03-11T15:29:39.906Z,10.72
2023-03-11T15:32:44.368Z,10.72
2023-03-11T15:35:20.793Z,10.71
2023-03-11T15:37:50.344Z,10.71
2023-03-11T15:40:35.234Z,10.71
2023-03-11T15:43:30.117Z,10.71
2023-03-11T15:45:59.301Z,10.71
2023-03-11T15:48:29.088Z,10.72
2023-03-11T15:50:58.561Z,10.73
2023-03-11T15:53:27.501Z,10.73
2023-03-11T15:56:06.257Z,10.71
2023-03-11T15:58:39.468Z,10.69
2023-03-11T16:01:09.485Z,10.66
2023-03-11T16:03:40.943Z,10.65
2023-03-11T16:06:09.818Z,10.64
2023-03-11T16:08:37.953Z,10.61
2023-03-11T16:11:07.292Z,10.60
2023-03-11T16:13:36.685Z,10.57
2023-03-11T16:16:05.680Z,10.55
2023-03-11T16:18:35.807Z,10.54
2023-03-11T16:21:11.537Z,10.55
2023-03-11T16:23:51.064Z,10.55
2023-03-11T16:26:20.749Z,10.54
2023-03-11T16:28:49.372Z,10.56
2023-03-11T16:31:17.601Z,10.58
2023-03-11T16:33:46.207Z,10.59
2023-03-11T16:36:14.194Z,10.60
2023-03-11T16:38:49.633Z,10.61
2023-03-11T16:41:18.817Z,10.63
2023-03-11T16:43:46.939Z,10.64
2023-03-11T16:46:15.452Z,10.64
2023-03-11T16:48:43.590Z,10.62
2023-03-11T16:51:15.094Z,10.61
2023-03-11T16:53:43.306Z,10.60
2023-03-11T16:56:15.711Z,10.60
2023-03-11T16:58:48.233Z,10.60
2023-03-11T17:01:18.064Z,10.61
2023-03-11T17:03:48.923Z,10.62
2023-03-11T17:06:17.913Z,10.65
2023-03-11T17:08:49.513Z,10.67
2023-03-11T17:11:19.075Z,10.67
2023-03-11T17:13:47.127Z,10.67
2023-03-11T17:16:15.380Z,10.67
2023-03-11T17:18:44.512Z,10.68
2023-03-11T17:21:13.906Z,10.69
2023-03-11T17:23:41.964Z,10.68
2023-03-11T17:26:11.779Z,10.69
2023-03-11T17:28:40.372Z,10.69
2023-03-11T17:31:15.358Z,10.70
2023-03-11T17:33:44.361Z,10.73
2023-03-11T17:36:16.493Z,10.75
2023-03-11T17:38:46.711Z,10.77
2023-03-11T17:41:16.570Z,10.77
2023-03-11T17:43:44.792Z,10.79
2023-03-11T17:46:15.731Z,10.79
2023-03-11T17:48:45.234Z,10.78
2023-03-11T17:51:16.456Z,10.76
2023-03-11T17:53:46.069Z,10.73
2023-03-11T17:56:16.651Z,10.69
2023-03-11T17:58:46.596Z,10.67
2023-03-11T18:01:16.531Z,10.66
2023-03-11T18:03:44.775Z,10.65
2023-03-11T18:06:13.913Z,10.64
2023-03-11T18:08:45.261Z,10.65
2023-03-11T18:11:20.141Z,10.66
2023-03-11T18:13:48.886Z,10.64
2023-03-11T18:16:19.471Z,10.62
2023-03-11T18:18:52.395Z,10.63
2023-03-11T18:21:22.152Z,10.64
2023-03-11T18:23:59.822Z,10.66
2023-03-11T18:26:28.740Z,10.68
2023-03-11T18:28:57.413Z,10.67
2023-03-11T18:31:26.911Z,10.67
2023-03-11T18:33:59.147Z,10.67
2023-03-11T18:36:34.773Z,10.66
2023-03-11T18:39:04.846Z,10.64
2023-03-11T18:41:35.773Z,10.65
2023-03-11T18:44:09.735Z,10.67
2023-03-11T18:46:41.639Z,10.67
2023-03-11T18:49:11.718Z,10.67
2023-03-11T18:51:41.169Z,10.69
2023-03-11T18:54:10.035Z,10.69
2023-03-11T18:56:38.130Z,10.66
2023-03-11T18:59:08.742Z,10.64
2023-03-11T19:01:36.900Z,10.62
2023-03-11T19:04:05.202Z,10.61
2023-03-11T19:06:33.785Z,10.62
2023-03-11T19:09:02.199Z,10.63
2023-03-11T19:11:32.238Z,10.63
2023-03-11T19:14:00.528Z,10.61
2023-03-11T19:16:29.217Z,10.59
2023-03-11T19:18:57.272Z,10.58
2023-03-11T19:21:26.202Z,10.57
2023-03-11T19:23:56.676Z,10.56
2023-03-11T19:26:41.390Z,10.57
2023-03-11T19:29:12.206Z,10.57
2023-03-11T19:31:40.537Z,10.58
2023-03-11T19:34:08.934Z,10.59
2023-03-11T19:36:37.078Z,10.62
2023-03-11T19:39:05.639Z,10.64
2023-03-11T19:41:34.001Z,10.61
2023-03-11T19:44:05.357Z,10.56
2023-03-11T19:46:36.501Z,10.52
2023-03-11T19:49:04.938Z,10.48
2023-03-11T19:51:48.508Z,10.46
2023-03-11T19:54:18.765Z,10.45
2023-03-11T19:56:50.607Z,10.43
2023-03-11T19:59:19.082Z,10.42
2023-03-11T20:01:47.233Z,10.43
2023-03-11T20:04:15.676Z,10.43
2023-03-11T20:06:44.576Z,10.42
2023-03-11T20:13:24.004Z,10.38
2023-03-11T20:15:52.207Z,10.39
2023-03-11T20:18:20.714Z,10.39
2023-03-11T20:20:49.018Z,10.39
2023-03-11T20:23:17.132Z,10.40
2023-03-11T20:25:47.773Z,10.37
2023-03-11T20:28:16.204Z,10.32
2023-03-11T20:30:44.329Z,10.31
2023-03-11T20:33:12.820Z,10.33
2023-03-11T20:35:41.881Z,10.37
2023-03-11T20:38:12.105Z,10.42
2023-03-11T20:40:40.760Z,10.50
2023-03-11T20:43:09.063Z,10.57
2023-03-11T20:45:38.901Z,10.64
2023-03-11T20:48:07.638Z,10.72
2023-03-11T20:50:36.561Z,10.79
2023-03-11T20:53:04.837Z,10.85
2023-03-11T20:55:33.048Z,10.87
2023-03-11T20:58:01.417Z,10.80
2023-03-11T21:00:29.636Z,10.70
2023-03-11T21:02:59.009Z,10.59
2023-03-11T21:05:28.058Z,10.53
2023-03-11T21:07:56.133Z,10.49
2023-03-11T21:10:24.535Z,10.47
2023-03-11T21:14:11.478Z,10.49
2023-03-11T21:16:42.794Z,10.58
2023-03-11T21:19:14.087Z,10.63
2023-03-11T21:21:49.508Z,10.70
2023-03-11T21:24:17.610Z,10.76
2023-03-11T21:26:46.118Z,10.81
2023-03-11T21:29:15.493Z,10.83
2023-03-11T21:31:43.835Z,10.84
2023-03-11T21:34:12.067Z,10.85
2023-03-11T21:36:40.465Z,10.87
2023-03-11T21:39:09.438Z,10.88
2023-03-11T21:41:37.553Z,10.87
2023-03-11T21:44:06.303Z,10.87
2023-03-11T21:46:35.282Z,10.88
2023-03-11T21:49:05.908Z,10.90
2023-03-11T21:51:35.705Z,10.91
2023-03-11T21:54:05.369Z,10.92
2023-03-11T21:56:35.622Z,10.91
2023-03-11T21:59:04.479Z,10.88
2023-03-11T22:01:35.094Z,10.81
2023-03-11T22:04:03.945Z,10.71
2023-03-11T22:06:33.494Z,10.66
2023-03-11T22:09:02.151Z,10.66
2023-03-11T22:11:31.883Z,10.69
2023-03-11T22:18:36.332Z,10.82
2023-03-11T22:21:05.226Z,10.86
2023-03-11T22:23:34.380Z,10.90
2023-03-11T22:26:03.782Z,10.92
2023-03-11T22:28:31.872Z,10.88
2023-03-11T22:30:59.886Z,10.77
2023-03-11T22:33:29.126Z,10.65
2023-03-11T22:35:57.592Z,10.56
2023-03-11T22:38:34.110Z,10.48
2023-03-11T22:41:07.605Z,10.45
2023-03-11T22:43:35.980Z,10.43
2023-03-11T22:46:04.894Z,10.41
2023-03-11T22:48:33.861Z,10.36
2023-03-11T22:51:06.758Z,10.30
2023-03-11T22:53:36.609Z,10.29
2023-03-11T22:56:09.752Z,10.28
2023-03-11T22:58:40.020Z,10.27
2023-03-11T23:01:08.767Z,10.22
2023-03-11T23:03:36.959Z,10.16
2023-03-11T23:06:07.563Z,10.09
2023-03-11T23:08:36.361Z,10.06
2023-03-11T23:11:12.077Z,10.07
2023-03-11T23:13:41.095Z,10.08
2023-03-11T23:16:14.294Z,10.07
2023-03-11T23:23:37.084Z,9.98
2023-03-11T23:26:55.830Z,9.92
2023-03-11T23:29:24.020Z,9.86
2023-03-11T23:31:52.918Z,9.81
2023-03-11T23:34:21.128Z,9.72
2023-03-11T23:36:49.182Z,9.68
2023-03-11T23:39:18.092Z,9.67
2023-03-11T23:41:46.101Z,9.62
2023-03-11T23:44:16.334Z,9.57
2023-03-11T23:46:45.039Z,9.56
2023-03-11T23:49:13.206Z,9.56
2023-03-11T23:51:41.175Z,9.56
2023-03-11T23:54:09.133Z,9.54
2023-03-11T23:56:38.101Z,9.52
2023-03-11T23:59:06.170Z,9.51
